sensor_id;sensor_type;location;lat;lon;timestamp;pressure;altitude;pressure_sealevel;temperature;humidity
32638;BME280;19045;52.268;10.506;2023-04-21T00:02:16;100875.94;;;7.80;100.00
32638;BME280;19045;52.268;10.506;2023-04-21T00:04:45;100872.44;;;7.80;100.00
32638;BME280;19045;52.268;10.506;2023-04-21T00:07:14;100879.53;;;7.86;100.00
32638;BME280;19045;52.268;10.506;2023-04-21T00:09:42;100870.47;;;7.75;100.00
32638;BME280;19045;52.268;10.506;2023-04-21T00:12:08;100872.63;;;7.67;100.00
32638;BME280;19045;52.268;10.506;2023-04-21T00:14:38;100867.84;;;7.69;100.00
32638;BME280;19045;52.268;10.506;2023-04-21T00:17:05;100868.00;;;7.74;100.00
32638;BME280;19045;52.268;10.506;2023-04-21T00:19:31;100866.25;;;7.79;100.00
32638;BME280;19045;52.268;10.506;2023-04-21T00:21:59;100866.59;;;7.71;100.00
32638;BME280;19045;52.268;10.506;2023-04-21T00:24:26;100868.84;;;7.86;100.00
32638;BME280;19045;52.268;10.506;2023-04-21T00:26:54;100860.69;;;7.81;100.00
32638;BME280;19045;52.268;10.506;2023-04-21T00:29:20;100856.19;;;7.93;100.00
32638;BME280;19045;52.268;10.506;2023-04-21T00:31:47;100856.38;;;7.80;100.00
32638;BME280;19045;52.268;10.506;2023-04-21T00:34:13;100853.84;;;7.85;100.00
32638;BME280;19045;52.268;10.506;2023-04-21T00:36:40;100850.47;;;7.78;100.00
32638;BME280;19045;52.268;10.506;2023-04-21T00:39:07;100848.25;;;7.87;100.00
32638;BME280;19045;52.268;10.506;2023-04-21T00:41:34;100839.09;;;7.94;100.00
32638;BME280;19045;52.268;10.506;2023-04-21T00:44:05;100847.34;;;7.93;100.00
32638;BME280;19045;52.268;10.506;2023-04-21T00:46:32;100848.75;;;7.95;100.00
32638;BME280;19045;52.268;10.506;2023-04-21T00:49:02;100835.16;;;7.97;100.00
32638;BME280;19045;52.268;10.506;2023-04-21T00:51:29;100844.09;;;7.91;100.00
32638;BME280;19045;52.268;10.506;2023-04-21T00:53:58;100839.06;;;7.82;100.00
32638;BME280;19045;52.268;10.506;2023-04-21T00:56:25;100833.34;;;7.79;100.00
32638;BME280;19045;52.268;10.506;2023-04-21T00:58:53;100828.00;;;7.79;100.00
32638;BME280;19045;52.268;10.506;2023-04-21T01:01:21;100826.59;;;7.76;100.00
32638;BME280;19045;52.268;10.506;2023-04-21T01:03:48;100823.94;;;7.76;100.00
32638;BME280;19045;52.268;10.506;2023-04-21T01:06:16;100823.56;;;7.73;100.00
32638;BME280;19045;52.268;10.506;2023-04-21T01:08:44;100829.28;;;7.76;100.00
32638;BME280;19045;52.268;10.506;2023-04-21T01:11:12;100821.34;;;7.70;100.00
32638;BME280;19045;52.268;10.506;2023-04-21T01:13:39;100825.22;;;7.74;100.00
32638;BME280;19045;52.268;10.506;2023-04-21T01:16:06;100815.53;;;7.61;100.00
32638;BME280;19045;52.268;10.506;2023-04-21T01:18:34;100823.66;;;7.66;100.00
32638;BME280;19045;52.268;10.506;2023-04-21T01:21:02;100817.66;;;7.71;100.00
32638;BME280;19045;52.268;10.506;2023-04-21T01:23:30;100812.41;;;7.76;100.00
32638;BME280;19045;52.268;10.506;2023-04-21T01:25:56;100821.97;;;7.72;100.00
32638;BME280;19045;52.268;10.506;2023-04-21T01:28:24;100818.69;;;7.70;100.00
32638;BME280;19045;52.268;10.506;2023-04-21T01:30:52;100818.81;;;7.75;100.00
32638;BME280;19045;52.268;10.506;2023-04-21T01:33:19;100828.47;;;7.76;100.00
32638;BME280;19045;52.268;10.506;2023-04-21T01:35:46;100817.88;;;7.69;100.00
32638;BME280;19045;52.268;10.506;2023-04-21T01:38:15;100810.28;;;7.66;100.00
32638;BME280;19045;52.268;10.506;2023-04-21T01:40:45;100816.09;;;7.63;100.00
32638;BME280;19045;52.268;10.506;2023-04-21T01:43:13;100818.31;;;7.66;100.00
32638;BME280;19045;52.268;10.506;2023-04-21T01:45:40;100812.97;;;7.66;100.00
32638;BME280;19045;52.268;10.506;2023-04-21T01:48:06;100825.66;;;7.71;100.00
32638;BME280;19045;52.268;10.506;2023-04-21T01:50:33;100815.34;;;7.74;100.00
32638;BME280;19045;52.268;10.506;2023-04-21T01:53:00;100811.97;;;7.79;100.00
32638;BME280;19045;52.268;10.506;2023-04-21T01:55:27;100818.22;;;7.73;100.00
32638;BME280;19045;52.268;10.506;2023-04-21T01:57:55;100809.63;;;7.71;100.00
32638;BME280;19045;52.268;10.506;2023-04-21T02:00:23;100818.81;;;7.75;100.00
32638;BME280;19045;52.268;10.506;2023-04-21T02:02:50;100810.44;;;7.71;100.00
32638;BME280;19045;52.268;10.506;2023-04-21T02:05:17;100808.25;;;7.80;100.00
32638;BME280;19045;52.268;10.506;2023-04-21T02:07:43;100811.47;;;7.70;100.00
32638;BME280;19045;52.268;10.506;2023-04-21T02:10:10;100810.09;;;7.68;100.00
32638;BME280;19045;52.268;10.506;2023-04-21T02:12:37;100806.03;;;7.77;100.00
32638;BME280;19045;52.268;10.506;2023-04-21T02:15:09;100806.84;;;7.77;100.00
32638;BME280;19045;52.268;10.506;2023-04-21T02:17:36;100805.72;;;7.85;100.00
32638;BME280;19045;52.268;10.506;2023-04-21T02:20:03;100806.03;;;7.77;100.00
32638;BME280;19045;52.268;10.506;2023-04-21T02:22:31;100797.06;;;7.71;100.00
32638;BME280;19045;52.268;10.506;2023-04-21T02:24:57;100794.97;;;7.73;100.00
32638;BME280;19045;52.268;10.506;2023-04-21T02:27:24;100792.66;;;7.77;100.00
32638;BME280;19045;52.268;10.506;2023-04-21T02:29:50;100794.50;;;7.76;100.00
32638;BME280;19045;52.268;10.506;2023-04-21T02:32:18;100787.47;;;7.82;100.00
32638;BME280;19045;52.268;10.506;2023-04-21T02:34:45;100792.19;;;7.80;100.00
32638;BME280;19045;52.268;10.506;2023-04-21T02:37:12;100785.22;;;7.79;100.00
32638;BME280;19045;52.268;10.506;2023-04-21T02:39:38;100791.97;;;7.82;100.00
32638;BME280;19045;52.268;10.506;2023-04-21T02:42:05;100793.38;;;7.84;100.00
32638;BME280;19045;52.268;10.506;2023-04-21T02:44:31;100788.94;;;7.78;100.00
32638;BME280;19045;52.268;10.506;2023-04-21T02:46:58;100790.00;;;7.77;100.00
32638;BME280;19045;52.268;10.506;2023-04-21T02:49:26;100785.47;;;7.77;100.00
32638;BME280;19045;52.268;10.506;2023-04-21T02:51:52;100780.34;;;7.88;100.00
32638;BME280;19045;52.268;10.506;2023-04-21T02:54:19;100784.88;;;7.75;100.00
32638;BME280;19045;52.268;10.506;2023-04-21T02:56:46;100785.22;;;7.79;100.00
32638;BME280;19045;52.268;10.506;2023-04-21T02:59:13;100786.50;;;7.76;100.00
32638;BME280;19045;52.268;10.506;2023-04-21T03:01:40;100788.34;;;7.76;100.00
32638;BME280;19045;52.268;10.506;2023-04-21T03:04:07;100785.09;;;7.74;100.00
32638;BME280;19045;52.268;10.506;2023-04-21T03:06:35;100773.22;;;7.70;100.00
32638;BME280;19045;52.268;10.506;2023-04-21T03:09:02;100781.97;;;7.65;100.00
32638;BME280;19045;52.268;10.506;2023-04-21T03:11:29;100781.16;;;7.76;100.00
32638;BME280;19045;52.268;10.506;2023-04-21T03:13:55;100781.97;;;7.77;100.00
32638;BME280;19045;52.268;10.506;2023-04-21T03:16:22;100773.94;;;7.77;100.00
32638;BME280;19045;52.268;10.506;2023-04-21T03:18:49;100780.78;;;7.73;100.00
32638;BME280;19045;52.268;10.506;2023-04-21T03:21:15;100784.63;;;7.77;100.00
32638;BME280;19045;52.268;10.506;2023-04-21T03:23:43;100784.75;;;7.70;100.00
32638;BME280;19045;52.268;10.506;2023-04-21T03:26:10;100782.06;;;7.70;100.00
32638;BME280;19045;52.268;10.506;2023-04-21T03:28:36;100781.25;;;7.70;100.00
32638;BME280;19045;52.268;10.506;2023-04-21T03:31:03;100786.97;;;7.73;100.00
32638;BME280;19045;52.268;10.506;2023-04-21T03:33:29;100790.31;;;7.69;100.00
32638;BME280;19045;52.268;10.506;2023-04-21T03:35:56;100777.28;;;7.72;100.00
32638;BME280;19045;52.268;10.506;2023-04-21T03:38:23;100785.31;;;7.72;100.00
32638;BME280;19045;52.268;10.506;2023-04-21T03:40:51;100783.56;;;7.66;100.00
32638;BME280;19045;52.268;10.506;2023-04-21T03:43:17;100783.81;;;7.65;100.00
32638;BME280;19045;52.268;10.506;2023-04-21T03:45:44;100781.59;;;7.73;100.00
32638;BME280;19045;52.268;10.506;2023-04-21T03:48:11;100786.59;;;7.70;100.00
32638;BME280;19045;52.268;10.506;2023-04-21T03:50:37;100789.50;;;7.68;100.00
32638;BME280;19045;52.268;10.506;2023-04-21T03:53:04;100792.41;;;7.67;100.00
32638;BME280;19045;52.268;10.506;2023-04-21T03:55:31;100792.19;;;7.68;100.00
32638;BME280;19045;52.268;10.506;2023-04-21T03:57:59;100794.25;;;7.66;100.00
32638;BME280;19045;52.268;10.506;2023-04-21T04:00:25;100794.88;;;7.68;100.00
32638;BME280;19045;52.268;10.506;2023-04-21T04:02:52;100800.22;;;7.68;100.00
32638;BME280;19045;52.268;10.506;2023-04-21T04:05:19;100792.88;;;7.64;100.00
32638;BME280;19045;52.268;10.506;2023-04-21T04:07:45;100791.47;;;7.73;100.00
32638;BME280;19045;52.268;10.506;2023-04-21T04:10:12;100783.47;;;7.73;100.00
32638;BME280;19045;52.268;10.506;2023-04-21T04:12:38;100787.19;;;7.72;100.00
32638;BME280;19045;52.268;10.506;2023-04-21T04:15:07;100791.72;;;7.71;100.00
32638;BME280;19045;52.268;10.506;2023-04-21T04:17:34;100793.13;;;7.74;100.00
32638;BME280;19045;52.268;10.506;2023-04-21T04:20:01;100779.19;;;7.72;100.00
32638;BME280;19045;52.268;10.506;2023-04-21T04:22:28;100784.63;;;7.77;100.00
32638;BME280;19045;52.268;10.506;2023-04-21T04:24:55;100799.97;;;7.70;100.00
32638;BME280;19045;52.268;10.506;2023-04-21T04:27:23;100803.69;;;7.69;100.00
32638;BME280;19045;52.268;10.506;2023-04-21T04:29:51;100798.00;;;7.77;100.00
32638;BME280;19045;52.268;10.506;2023-04-21T04:32:18;100790.44;;;7.74;100.00
32638;BME280;19045;52.268;10.506;2023-04-21T04:34:46;100794.06;;;7.79;100.00
32638;BME280;19045;52.268;10.506;2023-04-21T04:37:12;100794.06;;;7.79;100.00
32638;BME280;19045;52.268;10.506;2023-04-21T04:39:39;100800.00;;;7.82;100.00
32638;BME280;19045;52.268;10.506;2023-04-21T04:42:05;100800.81;;;7.82;100.00
32638;BME280;19045;52.268;10.506;2023-04-21T04:44:33;100794.44;;;7.95;100.00
32638;BME280;19045;52.268;10.506;2023-04-21T04:46:59;100796.53;;;7.93;100.00
32638;BME280;19045;52.268;10.506;2023-04-21T04:49:27;100810.00;;;7.86;100.00
32638;BME280;19045;52.268;10.506;2023-04-21T04:51:54;100805.97;;;7.95;100.00
32638;BME280;19045;52.268;10.506;2023-04-21T04:54:20;100801.75;;;7.99;100.00
32638;BME280;19045;52.268;10.506;2023-04-21T04:56:49;100798.19;;;8.05;100.00
32638;BME280;19045;52.268;10.506;2023-04-21T04:59:15;100795.97;;;8.14;100.00
32638;BME280;19045;52.268;10.506;2023-04-21T05:01:42;100800.53;;;8.25;100.00
32638;BME280;19045;52.268;10.506;2023-04-21T05:04:08;100799.03;;;8.29;100.00
32638;BME280;19045;52.268;10.506;2023-04-21T05:06:36;100800.66;;;8.42;100.00
32638;BME280;19045;52.268;10.506;2023-04-21T05:09:03;100801.34;;;8.60;100.00
32638;BME280;19045;52.268;10.506;2023-04-21T05:11:30;100802.47;;;8.76;100.00
32638;BME280;19045;52.268;10.506;2023-04-21T05:13:56;100810.72;;;8.98;100.00
32638;BME280;19045;52.268;10.506;2023-04-21T05:16:23;100809.50;;;9.17;100.00
32638;BME280;19045;52.268;10.506;2023-04-21T05:18:50;100811.41;;;9.33;100.00
32638;BME280;19045;52.268;10.506;2023-04-21T05:21:22;100808.66;;;9.45;100.00
32638;BME280;19045;52.268;10.506;2023-04-21T05:23:50;100811.63;;;9.60;100.00
32638;BME280;19045;52.268;10.506;2023-04-21T05:26:17;100810.94;;;9.64;99.95
32638;BME280;19045;52.268;10.506;2023-04-21T05:28:43;100816.69;;;9.73;99.12
32638;BME280;19045;52.268;10.506;2023-04-21T05:31:10;100818.19;;;9.80;98.78
32638;BME280;19045;52.268;10.506;2023-04-21T05:33:37;100820.72;;;9.87;98.43
32638;BME280;19045;52.268;10.506;2023-04-21T05:36:05;100820.56;;;9.94;97.04
32638;BME280;19045;52.268;10.506;2023-04-21T05:38:32;100822.00;;;10.01;97.34
32638;BME280;19045;52.268;10.506;2023-04-21T05:41:00;100823.81;;;10.12;96.22
32638;BME280;19045;52.268;10.506;2023-04-21T05:43:27;100829.44;;;10.27;96.22
32638;BME280;19045;52.268;10.506;2023-04-21T05:45:54;100829.53;;;10.32;94.94
32638;BME280;19045;52.268;10.506;2023-04-21T05:48:20;100839.28;;;10.38;94.24
32638;BME280;19045;52.268;10.506;2023-04-21T05:50:47;100843.09;;;10.43;94.40
32638;BME280;19045;52.268;10.506;2023-04-21T05:53:14;100837.72;;;10.59;93.90
32638;BME280;19045;52.268;10.506;2023-04-21T05:55:40;100833.94;;;10.77;93.02
32638;BME280;19045;52.268;10.506;2023-04-21T05:58:09;100841.16;;;10.93;92.29
32638;BME280;19045;52.268;10.506;2023-04-21T06:00:35;100833.81;;;11.10;90.74
32638;BME280;19045;52.268;10.506;2023-04-21T06:03:02;100833.66;;;11.17;89.95
32638;BME280;19045;52.268;10.506;2023-04-21T06:05:29;100834.63;;;11.32;90.26
32638;BME280;19045;52.268;10.506;2023-04-21T06:07:55;100830.78;;;11.50;88.92
32638;BME280;19045;52.268;10.506;2023-04-21T06:10:22;100825.28;;;11.67;88.33
32638;BME280;19045;52.268;10.506;2023-04-21T06:12:48;100825.94;;;11.74;87.13
32638;BME280;19045;52.268;10.506;2023-04-21T06:15:16;100826.22;;;11.72;86.09
32638;BME280;19045;52.268;10.506;2023-04-21T06:17:43;100825.00;;;11.90;86.46
32638;BME280;19045;52.268;10.506;2023-04-21T06:20:10;100822.47;;;12.05;84.56
32638;BME280;19045;52.268;10.506;2023-04-21T06:22:37;100828.53;;;12.22;84.70
32638;BME280;19045;52.268;10.506;2023-04-21T06:25:05;100810.75;;;12.26;83.79
32638;BME280;19045;52.268;10.506;2023-04-21T06:27:31;100827.56;;;12.38;83.91
32638;BME280;19045;52.268;10.506;2023-04-21T06:29:58;100821.22;;;12.55;83.16
32638;BME280;19045;52.268;10.506;2023-04-21T06:32:26;100823.66;;;12.61;82.41
32638;BME280;19045;52.268;10.506;2023-04-21T06:34:52;100817.81;;;12.69;82.83
32638;BME280;19045;52.268;10.506;2023-04-21T06:37:19;100806.22;;;12.74;82.49
32638;BME280;19045;52.268;10.506;2023-04-21T06:39:46;100806.31;;;12.89;81.48
32638;BME280;19045;52.268;10.506;2023-04-21T06:42:12;100815.50;;;13.03;80.94
32638;BME280;19045;52.268;10.506;2023-04-21T06:44:39;100806.72;;;13.23;79.60
32638;BME280;19045;52.268;10.506;2023-04-21T06:47:06;100801.63;;;13.31;78.62
32638;BME280;19045;52.268;10.506;2023-04-21T06:49:33;100796.25;;;13.36;79.48
32638;BME280;19045;52.268;10.506;2023-04-21T06:52:01;100795.72;;;13.50;78.73
32638;BME280;19045;52.268;10.506;2023-04-21T06:54:28;100797.09;;;13.72;78.85
32638;BME280;19045;52.268;10.506;2023-04-21T06:56:54;100799.53;;;13.79;77.77
32638;BME280;19045;52.268;10.506;2023-04-21T06:59:21;100803.34;;;13.88;76.89
32638;BME280;19045;52.268;10.506;2023-04-21T07:01:48;100791.19;;;14.06;75.65
32638;BME280;19045;52.268;10.506;2023-04-21T07:04:16;100791.19;;;14.21;74.39
32638;BME280;19045;52.268;10.506;2023-04-21T07:06:44;100794.44;;;14.38;74.15
32638;BME280;19045;52.268;10.506;2023-04-21T07:09:13;100789.53;;;14.45;73.16
32638;BME280;19045;52.268;10.506;2023-04-21T07:11:40;100787.09;;;14.48;72.46
32638;BME280;19045;52.268;10.506;2023-04-21T07:14:07;100790.09;;;14.42;71.79
32638;BME280;19045;52.268;10.506;2023-04-21T07:16:34;100795.22;;;14.54;71.87
32638;BME280;19045;52.268;10.506;2023-04-21T07:19:01;100784.38;;;14.59;71.59
32638;BME280;19045;52.268;10.506;2023-04-21T07:21:27;100795.72;;;14.66;70.27
32638;BME280;19045;52.268;10.506;2023-04-21T07:23:56;100776.75;;;14.81;69.85
32638;BME280;19045;52.268;10.506;2023-04-21T07:26:24;100782.09;;;14.96;69.22
32638;BME280;19045;52.268;10.506;2023-04-21T07:28:50;100778.22;;;15.12;68.12
32638;BME280;19045;52.268;10.506;2023-04-21T07:31:17;100778.41;;;15.31;67.04
32638;BME280;19045;52.268;10.506;2023-04-21T07:33:44;100780.75;;;15.42;66.91
32638;BME280;19045;52.268;10.506;2023-04-21T07:36:11;100776.63;;;15.60;65.48
32638;BME280;19045;52.268;10.506;2023-04-21T07:38:38;100787.88;;;15.77;64.43
32638;BME280;19045;52.268;10.506;2023-04-21T07:41:08;100778.56;;;15.88;63.76
32638;BME280;19045;52.268;10.506;2023-04-21T07:43:35;100774.53;;;15.86;64.16
32638;BME280;19045;52.268;10.506;2023-04-21T07:46:02;100774.38;;;16.01;63.33
32638;BME280;19045;52.268;10.506;2023-04-21T07:48:28;100779.19;;;16.09;62.39
32638;BME280;19045;52.268;10.506;2023-04-21T07:50:55;100767.47;;;16.19;62.35
32638;BME280;19045;52.268;10.506;2023-04-21T07:53:23;100772.44;;;16.35;61.50
32638;BME280;19045;52.268;10.506;2023-04-21T07:55:49;100768.78;;;16.50;61.31
32638;BME280;19045;52.268;10.506;2023-04-21T07:58:17;100763.78;;;16.62;59.87
32638;BME280;19045;52.268;10.506;2023-04-21T08:00:44;100767.91;;;16.54;59.88
32638;BME280;19045;52.268;10.506;2023-04-21T08:03:33;100764.41;;;16.78;59.67
32638;BME280;19045;52.268;10.506;2023-04-21T08:08:44;100764.28;;;16.88;59.10
32638;BME280;19045;52.268;10.506;2023-04-21T08:09:38;100770.53;;;17.07;58.24
32638;BME280;19045;52.268;10.506;2023-04-21T08:12:11;100766.69;;;17.13;57.86
32638;BME280;19045;52.268;10.506;2023-04-21T09:27:36;100719.84;;;24.67;36.39
32638;BME280;19045;52.268;10.506;2023-04-21T09:30:03;100716.75;;;25.73;34.33
32638;BME280;19045;52.268;10.506;2023-04-21T09:32:35;100715.34;;;26.22;33.82
32638;BME280;19045;52.268;10.506;2023-04-21T09:35:03;100727.25;;;27.08;32.61
32638;BME280;19045;52.268;10.506;2023-04-21T09:37:31;100718.25;;;27.46;31.59
32638;BME280;19045;52.268;10.506;2023-04-21T09:39:58;100715.81;;;27.83;30.82
32638;BME280;19045;52.268;10.506;2023-04-21T09:42:27;100720.19;;;27.64;30.46
32638;BME280;19045;52.268;10.506;2023-04-21T09:44:55;100713.97;;;28.32;30.18
32638;BME280;19045;52.268;10.506;2023-04-21T09:47:22;100720.47;;;28.43;30.04
32638;BME280;19045;52.268;10.506;2023-04-21T09:49:51;100701.91;;;28.21;30.10
32638;BME280;19045;52.268;10.506;2023-04-21T09:52:19;100702.47;;;29.35;27.85
32638;BME280;19045;52.268;10.506;2023-04-21T09:54:49;100689.97;;;29.18;27.42
32638;BME280;19045;52.268;10.506;2023-04-21T09:57:20;100690.19;;;29.66;27.19
32638;BME280;19045;52.268;10.506;2023-04-21T09:59:50;100699.91;;;30.77;25.94
32638;BME280;19045;52.268;10.506;2023-04-21T10:02:23;100695.44;;;30.59;25.90
32638;BME280;19045;52.268;10.506;2023-04-21T10:04:50;100677.38;;;30.32;25.72
32638;BME280;19045;52.268;10.506;2023-04-21T10:07:17;100684.16;;;30.38;25.86
32638;BME280;19045;52.268;10.506;2023-04-21T10:09:45;100684.16;;;29.94;25.79
32638;BME280;19045;52.268;10.506;2023-04-21T10:12:14;100673.13;;;30.01;25.34
32638;BME280;19045;52.268;10.506;2023-04-21T10:14:41;100686.94;;;29.94;25.18
32638;BME280;19045;52.268;10.506;2023-04-21T10:17:09;100672.28;;;29.60;25.14
32638;BME280;19045;52.268;10.506;2023-04-21T10:19:47;100676.50;;;29.17;24.90
32638;BME280;19045;52.268;10.506;2023-04-21T10:22:14;100682.59;;;28.96;25.31
32638;BME280;19045;52.268;10.506;2023-04-21T10:25:08;100670.88;;;29.73;24.77
32638;BME280;19045;52.268;10.506;2023-04-21T10:27:36;100669.84;;;29.88;24.32
32638;BME280;19045;52.268;10.506;2023-04-21T10:30:18;100667.84;;;29.85;24.62
32638;BME280;19045;52.268;10.506;2023-04-21T10:32:45;100673.69;;;28.80;24.67
32638;BME280;19045;52.268;10.506;2023-04-21T10:35:15;100654.47;;;29.57;24.09
32638;BME280;19045;52.268;10.506;2023-04-21T10:37:42;100654.63;;;30.12;23.70
32638;BME280;19045;52.268;10.506;2023-04-21T10:40:32;100647.81;;;29.99;23.98
32638;BME280;19045;52.268;10.506;2023-04-21T10:43:01;100672.06;;;30.12;24.10
32638;BME280;19045;52.268;10.506;2023-04-21T10:45:29;100653.16;;;29.14;24.81
32638;BME280;19045;52.268;10.506;2023-04-21T10:47:58;100649.59;;;28.84;25.05
32638;BME280;19045;52.268;10.506;2023-04-21T10:50:29;100643.88;;;29.66;24.97
32638;BME280;19045;52.268;10.506;2023-04-21T10:52:59;100632.28;;;27.66;25.79
32638;BME280;19045;52.268;10.506;2023-04-21T10:55:33;100631.16;;;27.29;26.85
32638;BME280;19045;52.268;10.506;2023-04-21T10:58:01;100642.53;;;26.54;27.60
32638;BME280;19045;52.268;10.506;2023-04-21T11:00:28;100638.53;;;25.74;28.45
32638;BME280;19045;52.268;10.506;2023-04-21T11:03:05;100642.47;;;25.88;28.33
32638;BME280;19045;52.268;10.506;2023-04-21T11:05:35;100625.63;;;25.18;29.25
32638;BME280;19045;52.268;10.506;2023-04-21T11:22:03;100604.34;;;24.51;29.93
32638;BME280;19045;52.268;10.506;2023-04-21T11:24:32;100619.59;;;22.81;32.85
32638;BME280;19045;52.268;10.506;2023-04-21T11:26:59;100593.69;;;22.49;32.25
32638;BME280;19045;52.268;10.506;2023-04-21T11:29:26;100607.28;;;22.08;33.63
32638;BME280;19045;52.268;10.506;2023-04-21T11:31:53;100590.34;;;22.44;33.46
32638;BME280;19045;52.268;10.506;2023-04-21T11:34:21;100607.41;;;22.20;33.53
32638;BME280;19045;52.268;10.506;2023-04-21T11:36:49;100608.69;;;22.23;33.16
32638;BME280;19045;52.268;10.506;2023-04-21T11:39:18;100603.97;;;21.85;33.35
32638;BME280;19045;52.268;10.506;2023-04-21T11:41:47;100596.28;;;21.24;33.54
32638;BME280;19045;52.268;10.506;2023-04-21T11:44:30;100581.50;;;21.16;33.48
32638;BME280;19045;52.268;10.506;2023-04-21T11:46:57;100600.94;;;21.78;32.79
32638;BME280;19045;52.268;10.506;2023-04-21T11:49:25;100607.34;;;21.99;32.17
32638;BME280;19045;52.268;10.506;2023-04-21T11:51:54;100581.28;;;21.85;32.41
32638;BME280;19045;52.268;10.506;2023-04-21T11:54:22;100578.50;;;22.10;32.66
32638;BME280;19045;52.268;10.506;2023-04-21T11:56:49;100576.78;;;22.27;32.41
32638;BME280;19045;52.268;10.506;2023-04-21T11:59:17;100587.44;;;22.20;31.23
32638;BME280;19045;52.268;10.506;2023-04-21T12:01:48;100565.06;;;22.17;30.73
32638;BME280;19045;52.268;10.506;2023-04-21T12:04:16;100564.47;;;22.12;30.73
32638;BME280;19045;52.268;10.506;2023-04-21T12:06:44;100551.13;;;22.10;30.45
32638;BME280;19045;52.268;10.506;2023-04-21T12:09:16;100564.88;;;22.23;30.21
32638;BME280;19045;52.268;10.506;2023-04-21T12:11:46;100556.53;;;22.19;30.24
32638;BME280;19045;52.268;10.506;2023-04-21T12:14:14;100553.06;;;22.10;30.45
32638;BME280;19045;52.268;10.506;2023-04-21T12:16:41;100573.03;;;22.02;30.46
32638;BME280;19045;52.268;10.506;2023-04-21T12:19:07;100560.47;;;22.09;30.44
32638;BME280;19045;52.268;10.506;2023-04-21T12:21:36;100566.97;;;21.88;31.28
32638;BME280;19045;52.268;10.506;2023-04-21T12:24:04;100564.09;;;21.93;32.09
32638;BME280;19045;52.268;10.506;2023-04-21T12:26:30;100553.00;;;21.89;32.28
32638;BME280;19045;52.268;10.506;2023-04-21T12:28:59;100563.72;;;22.03;32.13
32638;BME280;19045;52.268;10.506;2023-04-21T12:31:26;100550.22;;;21.51;32.78
32638;BME280;19045;52.268;10.506;2023-04-21T12:33:52;100552.66;;;21.91;32.66
32638;BME280;19045;52.268;10.506;2023-04-21T12:36:19;100546.03;;;22.21;32.04
32638;BME280;19045;52.268;10.506;2023-04-21T12:38:46;100542.66;;;22.45;31.57
32638;BME280;19045;52.268;10.506;2023-04-21T12:41:12;100540.44;;;22.67;31.39
32638;BME280;19045;52.268;10.506;2023-04-21T12:43:39;100532.47;;;22.33;30.55
32638;BME280;19045;52.268;10.506;2023-04-21T12:46:07;100550.22;;;22.27;30.89
32638;BME280;19045;52.268;10.506;2023-04-21T12:48:34;100540.13;;;22.19;30.68
32638;BME280;19045;52.268;10.506;2023-04-21T12:51:00;100532.88;;;21.94;31.06
32638;BME280;19045;52.268;10.506;2023-04-21T12:53:27;100523.38;;;21.91;30.91
32638;BME280;19045;52.268;10.506;2023-04-21T12:55:53;100536.81;;;22.05;30.61
32638;BME280;19045;52.268;10.506;2023-04-21T12:58:20;100536.88;;;21.88;30.34
32638;BME280;19045;52.268;10.506;2023-04-21T13:00:47;100558.56;;;21.63;30.91
32638;BME280;19045;52.268;10.506;2023-04-21T13:03:15;100545.19;;;21.71;31.36
32638;BME280;19045;52.268;10.506;2023-04-21T13:05:41;100522.50;;;21.61;31.04
32638;BME280;19045;52.268;10.506;2023-04-21T13:08:08;100527.06;;;21.57;30.99
32638;BME280;19045;52.268;10.506;2023-04-21T13:10:35;100511.28;;;21.54;30.83
32638;BME280;19045;52.268;10.506;2023-04-21T13:13:01;100519.84;;;21.44;31.13
32638;BME280;19045;52.268;10.506;2023-04-21T13:15:28;100510.22;;;21.47;31.21
32638;BME280;19045;52.268;10.506;2023-04-21T13:17:54;100519.91;;;21.74;30.75
32638;BME280;19045;52.268;10.506;2023-04-21T13:20:22;100519.13;;;21.18;31.40
32638;BME280;19045;52.268;10.506;2023-04-21T13:22:49;100513.94;;;21.34;31.39
32638;BME280;19045;52.268;10.506;2023-04-21T13:25:16;100502.03;;;21.38;31.64
32638;BME280;19045;52.268;10.506;2023-04-21T13:27:42;100497.06;;;21.70;31.50
32638;BME280;19045;52.268;10.506;2023-04-21T13:30:12;100507.78;;;21.45;31.58
32638;BME280;19045;52.268;10.506;2023-04-21T13:32:39;100490.81;;;21.23;32.00
32638;BME280;19045;52.268;10.506;2023-04-21T13:35:07;100471.66;;;21.31;31.97
32638;BME280;19045;52.268;10.506;2023-04-21T13:37:36;100479.44;;;21.21;32.29
32638;BME280;19045;52.268;10.506;2023-04-21T13:40:05;100491.03;;;21.00;32.82
32638;BME280;19045;52.268;10.506;2023-04-21T13:42:32;100482.81;;;21.00;32.84
32638;BME280;19045;52.268;10.506;2023-04-21T13:44:59;100466.44;;;21.00;33.01
32638;BME280;19045;52.268;10.506;2023-04-21T13:47:28;100478.34;;;20.79;33.50
32638;BME280;19045;52.268;10.506;2023-04-21T13:49:54;100490.75;;;20.68;33.59
32638;BME280;19045;52.268;10.506;2023-04-21T13:52:21;100469.88;;;20.63;33.77
32638;BME280;19045;52.268;10.506;2023-04-21T13:54:50;100454.44;;;20.76;33.60
32638;BME280;19045;52.268;10.506;2023-04-21T13:57:17;100459.72;;;20.72;33.41
32638;BME280;19045;52.268;10.506;2023-04-21T13:59:44;100443.69;;;20.71;33.04
32638;BME280;19045;52.268;10.506;2023-04-21T14:02:11;100439.97;;;20.75;32.83
32638;BME280;19045;52.268;10.506;2023-04-21T14:04:38;100437.91;;;20.63;32.20
32638;BME280;19045;52.268;10.506;2023-04-21T14:07:07;100439.88;;;20.54;32.02
32638;BME280;19045;52.268;10.506;2023-04-21T14:09:34;100418.81;;;20.55;32.05
32638;BME280;19045;52.268;10.506;2023-04-21T14:12:03;100403.75;;;20.40;31.36